sensor_id;sensor_type;location;lat;lon;timestamp;P1;durP1;ratioP1;P2;durP2;ratioP2
67721;SDS011;58309;45.292;11.820;2022-11-20T00:00:07;10.18;;;7.15;;
67721;SDS011;58309;45.292;11.820;2022-11-20T00:02:33;9.73;;;7.40;;
67721;SDS011;58309;45.292;11.820;2022-11-20T00:04:58;10.07;;;7.38;;
67721;SDS011;58309;45.292;11.820;2022-11-20T00:07:24;9.52;;;7.43;;
67721;SDS011;58309;45.292;11.820;2022-11-20T00:09:49;11.35;;;7.88;;
67721;SDS011;58309;45.292;11.820;2022-11-20T00:12:15;8.60;;;7.03;;
67721;SDS011;58309;45.292;11.820;2022-11-20T00:14:41;10.45;;;7.90;;
67721;SDS011;58309;45.292;11.820;2022-11-20T00:17:06;10.60;;;7.72;;
67721;SDS011;58309;45.292;11.820;2022-11-20T00:19:32;8.32;;;6.93;;
67721;SDS011;58309;45.292;11.820;2022-11-20T00:21:57;8.68;;;6.93;;
67721;SDS011;58309;45.292;11.820;2022-11-20T00:24:23;11.48;;;7.28;;
67721;SDS011;58309;45.292;11.820;2022-11-20T00:26:48;8.68;;;7.15;;
67721;SDS011;58309;45.292;11.820;2022-11-20T00:29:13;7.47;;;6.68;;
67721;SDS011;58309;45.292;11.820;2022-11-20T00:31:39;8.05;;;6.50;;
67721;SDS011;58309;45.292;11.820;2022-11-20T00:34:04;8.15;;;6.63;;
67721;SDS011;58309;45.292;11.820;2022-11-20T00:36:31;8.70;;;6.25;;
67721;SDS011;58309;45.292;11.820;2022-11-20T00:38:59;8.88;;;6.10;;
67721;SDS011;58309;45.292;11.820;2022-11-20T00:41:25;8.10;;;6.30;;
67721;SDS011;58309;45.292;11.820;2022-11-20T00:43:54;7.85;;;6.60;;
67721;SDS011;58309;45.292;11.820;2022-11-20T00:46:21;8.75;;;6.57;;
67721;SDS011;58309;45.292;11.820;2022-11-20T00:48:48;8.15;;;6.47;;
67721;SDS011;58309;45.292;11.820;2022-11-20T00:51:15;10.18;;;6.53;;
67721;SDS011;58309;45.292;11.820;2022-11-20T00:53:42;9.32;;;6.88;;
67721;SDS011;58309;45.292;11.820;2022-11-20T00:56:09;9.30;;;7.03;;
67721;SDS011;58309;45.292;11.820;2022-11-20T00:58:37;9.40;;;6.30;;
67721;SDS011;58309;45.292;11.820;2022-11-20T01:01:04;7.80;;;6.70;;
67721;SDS011;58309;45.292;11.820;2022-11-20T01:03:31;12.40;;;6.63;;
67721;SDS011;58309;45.292;11.820;2022-11-20T01:06:01;8.05;;;6.43;;
67721;SDS011;58309;45.292;11.820;2022-11-20T01:08:31;7.38;;;6.43;;
67721;SDS011;58309;45.292;11.820;2022-11-20T01:10:59;7.38;;;6.47;;
67721;SDS011;58309;45.292;11.820;2022-11-20T01:13:26;7.43;;;5.93;;
67721;SDS011;58309;45.292;11.820;2022-11-20T01:16:03;8.73;;;6.07;;
67721;SDS011;58309;45.292;11.820;2022-11-20T01:18:39;9.88;;;6.20;;
67721;SDS011;58309;45.292;11.820;2022-11-20T01:21:10;7.15;;;5.93;;
67721;SDS011;58309;45.292;11.820;2022-11-20T01:23:39;8.27;;;6.35;;
67721;SDS011;58309;45.292;11.820;2022-11-20T01:26:07;7.18;;;5.97;;
67721;SDS011;58309;45.292;11.820;2022-11-20T01:28:34;8.63;;;6.25;;
67721;SDS011;58309;45.292;11.820;2022-11-20T01:31:00;7.07;;;5.72;;
67721;SDS011;58309;45.292;11.820;2022-11-20T01:33:25;6.82;;;5.30;;
67721;SDS011;58309;45.292;11.820;2022-11-20T01:35:52;6.15;;;5.45;;
67721;SDS011;58309;45.292;11.820;2022-11-20T01:38:17;6.70;;;5.63;;
67721;SDS011;58309;45.292;11.820;2022-11-20T01:40:45;6.35;;;5.35;;
67721;SDS011;58309;45.292;11.820;2022-11-20T01:43:17;8.77;;;5.60;;
67721;SDS011;58309;45.292;11.820;2022-11-20T01:46:00;6.10;;;5.30;;
67721;SDS011;58309;45.292;11.820;2022-11-20T01:50:58;6.65;;;4.93;;
67721;SDS011;58309;45.292;11.820;2022-11-20T01:53:29;6.05;;;4.68;;
67721;SDS011;58309;45.292;11.820;2022-11-20T01:55:57;8.63;;;4.97;;
67721;SDS011;58309;45.292;11.820;2022-11-20T01:58:29;5.80;;;4.95;;
67721;SDS011;58309;45.292;11.820;2022-11-20T02:00:58;5.85;;;4.90;;
67721;SDS011;58309;45.292;11.820;2022-11-20T02:03:24;8.18;;;5.13;;
67721;SDS011;58309;45.292;11.820;2022-11-20T02:05:51;6.10;;;5.13;;
67721;SDS011;58309;45.292;11.820;2022-11-20T02:08:22;5.18;;;4.68;;
67721;SDS011;58309;45.292;11.820;2022-11-20T02:10:48;5.50;;;4.82;;
67721;SDS011;58309;45.292;11.820;2022-11-20T02:13:14;7.55;;;5.43;;
67721;SDS011;58309;45.292;11.820;2022-11-20T02:15:59;6.88;;;5.00;;
67721;SDS011;58309;45.292;11.820;2022-11-20T02:18:25;8.25;;;4.75;;
67721;SDS011;58309;45.292;11.820;2022-11-20T02:20:53;5.40;;;4.90;;
67721;SDS011;58309;45.292;11.820;2022-11-20T02:25:53;5.63;;;5.03;;
67721;SDS011;58309;45.292;11.820;2022-11-20T02:28:19;6.03;;;4.43;;
67721;SDS011;58309;45.292;11.820;2022-11-20T02:30:45;6.88;;;4.88;;
67721;SDS011;58309;45.292;11.820;2022-11-20T02:33:11;6.40;;;4.80;;
67721;SDS011;58309;45.292;11.820;2022-11-20T02:35:45;5.03;;;4.55;;
67721;SDS011;58309;45.292;11.820;2022-11-20T02:38:12;7.75;;;5.13;;
67721;SDS011;58309;45.292;11.820;2022-11-20T02:40:38;5.35;;;4.65;;
67721;SDS011;58309;45.292;11.820;2022-11-20T02:43:03;6.80;;;5.32;;
67721;SDS011;58309;45.292;11.820;2022-11-20T02:45:29;7.85;;;4.82;;
67721;SDS011;58309;45.292;11.820;2022-11-20T02:47:55;5.50;;;4.93;;
67721;SDS011;58309;45.292;11.820;2022-11-20T02:50:20;6.70;;;5.10;;
67721;SDS011;58309;45.292;11.820;2022-11-20T02:52:46;7.85;;;5.40;;
67721;SDS011;58309;45.292;11.820;2022-11-20T02:55:11;7.00;;;5.25;;
67721;SDS011;58309;45.292;11.820;2022-11-20T02:57:37;8.60;;;5.80;;
67721;SDS011;58309;45.292;11.820;2022-11-20T03:00:03;8.15;;;6.00;;
67721;SDS011;58309;45.292;11.820;2022-11-20T03:02:30;6.45;;;5.40;;
67721;SDS011;58309;45.292;11.820;2022-11-20T03:04:55;6.15;;;5.30;;
67721;SDS011;58309;45.292;11.820;2022-11-20T03:07:21;9.25;;;6.03;;
67721;SDS011;58309;45.292;11.820;2022-11-20T03:09:46;8.10;;;5.53;;
67721;SDS011;58309;45.292;11.820;2022-11-20T03:12:12;6.45;;;5.60;;
67721;SDS011;58309;45.292;11.820;2022-11-20T03:14:37;6.93;;;5.18;;
67721;SDS011;58309;45.292;11.820;2022-11-20T03:17:02;6.88;;;5.13;;
67721;SDS011;58309;45.292;11.820;2022-11-20T03:19:28;6.78;;;4.88;;
67721;SDS011;58309;45.292;11.820;2022-11-20T03:21:54;6.57;;;4.70;;
67721;SDS011;58309;45.292;11.820;2022-11-20T03:24:19;7.18;;;5.35;;
67721;SDS011;58309;45.292;11.820;2022-11-20T03:26:44;6.40;;;5.00;;
67721;SDS011;58309;45.292;11.820;2022-11-20T03:29:10;6.20;;;5.20;;
67721;SDS011;58309;45.292;11.820;2022-11-20T03:31:36;5.28;;;4.60;;
67721;SDS011;58309;45.292;11.820;2022-11-20T03:34:05;5.82;;;4.93;;
67721;SDS011;58309;45.292;11.820;2022-11-20T03:36:32;7.32;;;4.93;;
67721;SDS011;58309;45.292;11.820;2022-11-20T03:38:58;5.85;;;4.40;;
67721;SDS011;58309;45.292;11.820;2022-11-20T03:41:28;4.78;;;4.30;;
67721;SDS011;58309;45.292;11.820;2022-11-20T03:43:56;5.13;;;4.60;;
67721;SDS011;58309;45.292;11.820;2022-11-20T03:46:24;6.07;;;5.15;;
67721;SDS011;58309;45.292;11.820;2022-11-20T03:48:51;5.47;;;4.45;;
67721;SDS011;58309;45.292;11.820;2022-11-20T03:51:17;6.28;;;4.55;;
67721;SDS011;58309;45.292;11.820;2022-11-20T03:53:46;4.40;;;4.00;;
67721;SDS011;58309;45.292;11.820;2022-11-20T03:56:13;4.63;;;4.20;;
67721;SDS011;58309;45.292;11.820;2022-11-20T03:58:40;5.53;;;4.20;;
67721;SDS011;58309;45.292;11.820;2022-11-20T04:01:16;5.40;;;4.35;;
67721;SDS011;58309;45.292;11.820;2022-11-20T04:03:43;4.38;;;3.97;;
67721;SDS011;58309;45.292;11.820;2022-11-20T04:08:56;4.88;;;4.38;;
67721;SDS011;58309;45.292;11.820;2022-11-20T04:11:24;5.00;;;4.13;;
67721;SDS011;58309;45.292;11.820;2022-11-20T04:13:52;5.72;;;4.28;;
67721;SDS011;58309;45.292;11.820;2022-11-20T04:16:29;4.75;;;4.30;;
67721;SDS011;58309;45.292;11.820;2022-11-20T04:18:57;5.00;;;3.70;;
67721;SDS011;58309;45.292;11.820;2022-11-20T04:21:24;3.95;;;3.60;;
67721;SDS011;58309;45.292;11.820;2022-11-20T04:23:51;4.13;;;3.75;;
67721;SDS011;58309;45.292;11.820;2022-11-20T04:26:18;4.85;;;3.80;;
67721;SDS011;58309;45.292;11.820;2022-11-20T04:28:44;4.55;;;4.10;;
67721;SDS011;58309;45.292;11.820;2022-11-20T04:31:10;4.55;;;3.75;;
67721;SDS011;58309;45.292;11.820;2022-11-20T04:33:41;4.15;;;3.75;;
67721;SDS011;58309;45.292;11.820;2022-11-20T04:38:37;4.38;;;3.75;;
67721;SDS011;58309;45.292;11.820;2022-11-20T04:41:04;5.15;;;3.88;;
67721;SDS011;58309;45.292;11.820;2022-11-20T04:43:32;5.43;;;4.00;;
67721;SDS011;58309;45.292;11.820;2022-11-20T04:45:58;3.97;;;3.58;;
67721;SDS011;58309;45.292;11.820;2022-11-20T04:48:25;4.82;;;3.65;;
67721;SDS011;58309;45.292;11.820;2022-11-20T04:50:52;8.25;;;3.80;;
67721;SDS011;58309;45.292;11.820;2022-11-20T04:53:18;3.90;;;3.50;;
67721;SDS011;58309;45.292;11.820;2022-11-20T04:55:45;5.30;;;3.92;;
67721;SDS011;58309;45.292;11.820;2022-11-20T04:58:10;4.28;;;3.92;;
67721;SDS011;58309;45.292;11.820;2022-11-20T05:00:37;5.47;;;3.75;;
67721;SDS011;58309;45.292;11.820;2022-11-20T05:03:02;4.18;;;3.60;;
67721;SDS011;58309;45.292;11.820;2022-11-20T05:05:28;3.72;;;3.40;;
67721;SDS011;58309;45.292;11.820;2022-11-20T05:07:57;4.25;;;3.85;;
67721;SDS011;58309;45.292;11.820;2022-11-20T05:10:24;4.72;;;3.80;;
67721;SDS011;58309;45.292;11.820;2022-11-20T05:12:50;4.32;;;3.63;;
67721;SDS011;58309;45.292;11.820;2022-11-20T05:15:15;4.18;;;3.58;;
67721;SDS011;58309;45.292;11.820;2022-11-20T05:17:41;4.47;;;3.40;;
67721;SDS011;58309;45.292;11.820;2022-11-20T05:20:11;4.15;;;3.75;;
67721;SDS011;58309;45.292;11.820;2022-11-20T05:22:36;4.20;;;3.70;;
67721;SDS011;58309;45.292;11.820;2022-11-20T05:25:02;3.75;;;3.45;;
67721;SDS011;58309;45.292;11.820;2022-11-20T05:27:27;4.10;;;3.70;;
67721;SDS011;58309;45.292;11.820;2022-11-20T05:29:53;4.40;;;4.00;;
67721;SDS011;58309;45.292;11.820;2022-11-20T05:32:20;4.07;;;3.63;;
67721;SDS011;58309;45.292;11.820;2022-11-20T05:34:45;3.85;;;3.55;;
67721;SDS011;58309;45.292;11.820;2022-11-20T05:37:11;4.53;;;3.67;;
67721;SDS011;58309;45.292;11.820;2022-11-20T05:39:36;4.43;;;3.90;;
67721;SDS011;58309;45.292;11.820;2022-11-20T05:42:01;4.10;;;3.70;;
67721;SDS011;58309;45.292;11.820;2022-11-20T05:44:45;4.78;;;4.05;;
67721;SDS011;58309;45.292;11.820;2022-11-20T05:47:11;6.68;;;4.28;;
67721;SDS011;58309;45.292;11.820;2022-11-20T05:49:36;4.18;;;3.72;;
67721;SDS011;58309;45.292;11.820;2022-11-20T05:52:02;5.35;;;3.60;;
67721;SDS011;58309;45.292;11.820;2022-11-20T05:54:27;4.10;;;3.72;;
67721;SDS011;58309;45.292;11.820;2022-11-20T05:56:53;4.32;;;3.80;;
67721;SDS011;58309;45.292;11.820;2022-11-20T05:59:18;4.40;;;3.63;;
67721;SDS011;58309;45.292;11.820;2022-11-20T06:01:44;3.80;;;3.42;;
67721;SDS011;58309;45.292;11.820;2022-11-20T06:04:09;4.53;;;4.00;;
67721;SDS011;58309;45.292;11.820;2022-11-20T06:06:35;4.80;;;4.10;;
67721;SDS011;58309;45.292;11.820;2022-11-20T06:09:00;4.70;;;4.30;;
67721;SDS011;58309;45.292;11.820;2022-11-20T06:11:26;4.30;;;3.88;;
67721;SDS011;58309;45.292;11.820;2022-11-20T06:13:51;9.05;;;6.90;;
67721;SDS011;58309;45.292;11.820;2022-11-20T06:16:17;5.88;;;5.28;;
67721;SDS011;58309;45.292;11.820;2022-11-20T06:18:44;5.78;;;5.03;;
67721;SDS011;58309;45.292;11.820;2022-11-20T06:21:12;16.95;;;6.10;;
67721;SDS011;58309;45.292;11.820;2022-11-20T06:23:39;4.97;;;4.40;;
67721;SDS011;58309;45.292;11.820;2022-11-20T06:26:06;12.30;;;8.00;;
67721;SDS011;58309;45.292;11.820;2022-11-20T06:28:36;15.77;;;11.02;;
67721;SDS011;58309;45.292;11.820;2022-11-20T06:31:02;4.53;;;3.88;;
67721;SDS011;58309;45.292;11.820;2022-11-20T06:33:28;6.07;;;4.22;;
67721;SDS011;58309;45.292;11.820;2022-11-20T06:35:56;6.22;;;4.10;;
67721;SDS011;58309;45.292;11.820;2022-11-20T06:38:25;4.57;;;4.18;;
67721;SDS011;58309;45.292;11.820;2022-11-20T06:40:51;7.38;;;5.03;;
67721;SDS011;58309;45.292;11.820;2022-11-20T06:43:17;5.88;;;4.47;;
67721;SDS011;58309;45.292;11.820;2022-11-20T06:45:44;6.75;;;4.45;;
67721;SDS011;58309;45.292;11.820;2022-11-20T06:48:09;5.95;;;4.32;;
67721;SDS011;58309;45.292;11.820;2022-11-20T06:50:38;5.68;;;4.60;;
67721;SDS011;58309;45.292;11.820;2022-11-20T06:53:03;6.97;;;5.00;;
67721;SDS011;58309;45.292;11.820;2022-11-20T06:55:29;5.40;;;4.38;;
67721;SDS011;58309;45.292;11.820;2022-11-20T06:57:56;6.47;;;5.05;;
67721;SDS011;58309;45.292;11.820;2022-11-20T07:00:21;6.25;;;4.50;;
67721;SDS011;58309;45.292;11.820;2022-11-20T07:02:47;8.85;;;4.95;;
67721;SDS011;58309;45.292;11.820;2022-11-20T07:05:12;7.50;;;5.10;;
67721;SDS011;58309;45.292;11.820;2022-11-20T07:07:38;9.13;;;5.30;;
67721;SDS011;58309;45.292;11.820;2022-11-20T07:10:03;5.78;;;4.95;;
67721;SDS011;58309;45.292;11.820;2022-11-20T07:12:29;5.82;;;4.88;;
67721;SDS011;58309;45.292;11.820;2022-11-20T07:14:55;6.75;;;5.22;;
67721;SDS011;58309;45.292;11.820;2022-11-20T07:17:21;7.38;;;5.18;;
67721;SDS011;58309;45.292;11.820;2022-11-20T07:19:46;6.03;;;5.03;;
67721;SDS011;58309;45.292;11.820;2022-11-20T07:22:12;6.90;;;5.03;;
67721;SDS011;58309;45.292;11.820;2022-11-20T07:24:38;11.20;;;6.60;;
67721;SDS011;58309;45.292;11.820;2022-11-20T07:27:04;10.68;;;7.03;;
67721;SDS011;58309;45.292;11.820;2022-11-20T07:29:29;9.10;;;5.90;;
67721;SDS011;58309;45.292;11.820;2022-11-20T07:31:55;7.45;;;5.38;;
67721;SDS011;58309;45.292;11.820;2022-11-20T07:34:21;7.13;;;5.20;;
67721;SDS011;58309;45.292;11.820;2022-11-20T07:36:47;6.20;;;5.30;;
67721;SDS011;58309;45.292;11.820;2022-11-20T07:39:13;6.35;;;5.15;;
67721;SDS011;58309;45.292;11.820;2022-11-20T07:41:38;7.60;;;5.47;;
67721;SDS011;58309;45.292;11.820;2022-11-20T07:44:04;6.85;;;4.75;;
67721;SDS011;58309;45.292;11.820;2022-11-20T07:46:29;7.18;;;5.13;;
67721;SDS011;58309;45.292;11.820;2022-11-20T07:48:55;8.63;;;5.53;;
67721;SDS011;58309;45.292;11.820;2022-11-20T07:51:20;9.50;;;5.45;;
67721;SDS011;58309;45.292;11.820;2022-11-20T07:53:46;6.78;;;5.38;;
67721;SDS011;58309;45.292;11.820;2022-11-20T07:56:11;7.38;;;5.07;;
67721;SDS011;58309;45.292;11.820;2022-11-20T07:58:38;8.77;;;5.60;;
67721;SDS011;58309;45.292;11.820;2022-11-20T08:01:05;5.50;;;4.70;;
67721;SDS011;58309;45.292;11.820;2022-11-20T08:03:31;5.00;;;4.45;;
67721;SDS011;58309;45.292;11.820;2022-11-20T08:06:00;11.07;;;6.22;;
67721;SDS011;58309;45.292;11.820;2022-11-20T08:08:27;10.60;;;7.28;;
67721;SDS011;58309;45.292;11.820;2022-11-20T08:10:53;8.73;;;5.68;;
67721;SDS011;58309;45.292;11.820;2022-11-20T08:13:39;8.35;;;6.47;;
67721;SDS011;58309;45.292;11.820;2022-11-20T08:16:23;8.60;;;6.90;;
67721;SDS011;58309;45.292;11.820;2022-11-20T08:18:48;6.93;;;5.35;;
67721;SDS011;58309;45.292;11.820;2022-11-20T08:21:14;4.80;;;4.15;;
67721;SDS011;58309;45.292;11.820;2022-11-20T08:23:40;9.93;;;5.60;;
67721;SDS011;58309;45.292;11.820;2022-11-20T08:26:06;4.55;;;4.15;;
67721;SDS011;58309;45.292;11.820;2022-11-20T08:28:31;5.13;;;4.13;;
67721;SDS011;58309;45.292;11.820;2022-11-20T08:31:00;3.83;;;3.22;;
67721;SDS011;58309;45.292;11.820;2022-11-20T08:33:26;7.40;;;3.60;;
67721;SDS011;58309;45.292;11.820;2022-11-20T08:35:51;5.78;;;3.67;;
67721;SDS011;58309;45.292;11.820;2022-11-20T08:38:17;4.07;;;3.67;;
67721;SDS011;58309;45.292;11.820;2022-11-20T08:40:43;7.72;;;4.70;;
67721;SDS011;58309;45.292;11.820;2022-11-20T08:43:31;3.83;;;3.45;;
67721;SDS011;58309;45.292;11.820;2022-11-20T08:45:57;3.30;;;3.00;;
67721;SDS011;58309;45.292;11.820;2022-11-20T08:48:23;3.70;;;3.20;;
67721;SDS011;58309;45.292;11.820;2022-11-20T08:50:48;4.10;;;3.13;;
67721;SDS011;58309;45.292;11.820;2022-11-20T08:53:13;2.90;;;2.60;;
67721;SDS011;58309;45.292;11.820;2022-11-20T08:55:40;5.05;;;2.72;;
67721;SDS011;58309;45.292;11.820;2022-11-20T08:58:06;7.90;;;7.15;;
67721;SDS011;58309;45.292;11.820;2022-11-20T09:00:32;4.10;;;2.80;;
67721;SDS011;58309;45.292;11.820;2022-11-20T09:02:58;6.75;;;2.70;;
67721;SDS011;58309;45.292;11.820;2022-11-20T09:05:24;4.55;;;3.20;;
67721;SDS011;58309;45.292;11.820;2022-11-20T09:07:49;5.60;;;3.63;;
67721;SDS011;58309;45.292;11.820;2022-11-20T09:10:15;3.83;;;2.85;;
67721;SDS011;58309;45.292;11.820;2022-11-20T09:12:40;6.00;;;4.32;;
67721;SDS011;58309;45.292;11.820;2022-11-20T09:15:06;6.38;;;3.40;;
67721;SDS011;58309;45.292;11.820;2022-11-20T09:17:32;4.65;;;3.72;;
67721;SDS011;58309;45.292;11.820;2022-11-20T09:19:57;5.70;;;4.20;;
67721;SDS011;58309;45.292;11.820;2022-11-20T09:22:23;5.22;;;3.80;;
67721;SDS011;58309;45.292;11.820;2022-11-20T09:24:49;5.80;;;4.70;;
67721;SDS011;58309;45.292;11.820;2022-11-20T09:27:14;7.82;;;5.50;;
67721;SDS011;58309;45.292;11.820;2022-11-20T09:32:09;4.03;;;3.08;;
67721;SDS011;58309;45.292;11.820;2022-11-20T09:34:35;3.70;;;2.30;;
67721;SDS011;58309;45.292;11.820;2022-11-20T09:37:00;2.53;;;2.33;;
67721;SDS011;58309;45.292;11.820;2022-11-20T09:39:26;2.75;;;2.13;;
67721;SDS011;58309;45.292;11.820;2022-11-20T09:55:21;4.20;;;2.00;;
67721;SDS011;58309;45.292;11.820;2022-11-20T09:57:47;2.88;;;1.83;;
67721;SDS011;58309;45.292;11.820;2022-11-20T10:00:14;2.90;;;1.92;;
67721;SDS011;58309;45.292;11.820;2022-11-20T10:02:43;2.08;;;1.65;;
67721;SDS011;58309;45.292;11.820;2022-11-20T10:05:27;5.05;;;1.88;;
67721;SDS011;58309;45.292;11.820;2022-11-20T10:10:49;6.57;;;2.45;;
67721;SDS011;58309;45.292;11.820;2022-11-20T10:16:16;6.93;;;1.70;;
67721;SDS011;58309;45.292;11.820;2022-11-20T10:19:11;4.60;;;3.35;;
67721;SDS011;58309;45.292;11.820;2022-11-20T10:21:57;3.20;;;1.10;;
67721;SDS011;58309;45.292;11.820;2022-11-20T10:27:41;5.65;;;1.70;;
67721;SDS011;58309;45.292;11.820;2022-11-20T10:30:21;2.45;;;1.15;;
67721;SDS011;58309;45.292;11.820;2022-11-20T10:32:51;2.72;;;1.05;;
67721;SDS011;58309;45.292;11.820;2022-11-20T10:38:05;9.55;;;4.40;;
67721;SDS011;58309;45.292;11.820;2022-11-20T10:40:41;4.53;;;2.80;;
67721;SDS011;58309;45.292;11.820;2022-11-20T10:45:58;2.92;;;2.00;;
67721;SDS011;58309;45.292;11.820;2022-11-20T10:48:30;5.25;;;1.73;;
67721;SDS011;58309;45.292;11.820;2022-11-20T10:56:40;2.08;;;1.10;;
67721;SDS011;58309;45.292;11.820;2022-11-20T10:59:20;6.20;;;1.65;;
67721;SDS011;58309;45.292;11.820;2022-11-20T11:02:21;3.72;;;1.40;;
67721;SDS011;58309;45.292;11.820;2022-11-20T11:09:48;2.05;;;1.55;;
67721;SDS011;58309;45.292;11.820;2022-11-20T11:12:16;3.22;;;1.30;;
67721;SDS011;58309;45.292;11.820;2022-11-20T11:14:43;3.55;;;1.50;;
67721;SDS011;58309;45.292;11.820;2022-11-20T11:17:18;3.83;;;1.67;;
67721;SDS011;58309;45.292;11.820;2022-11-20T11:19:56;2.70;;;2.40;;
67721;SDS011;58309;45.292;11.820;2022-11-20T11:22:23;2.83;;;2.17;;
67721;SDS011;58309;45.292;11.820;2022-11-20T11:24:52;4.35;;;2.55;;
67721;SDS011;58309;45.292;11.820;2022-11-20T11:27:18;1.70;;;1.55;;
67721;SDS011;58309;45.292;11.820;2022-11-20T11:29:45;2.42;;;1.90;;
67721;SDS011;58309;45.292;11.820;2022-11-20T11:32:12;3.92;;;1.60;;
67721;SDS011;58309;45.292;11.820;2022-11-20T11:34:40;4.45;;;2.38;;
67721;SDS011;58309;45.292;11.820;2022-11-20T11:37:11;5.85;;;3.80;;
67721;SDS011;58309;45.292;11.820;2022-11-20T11:39:46;4.22;;;2.10;;
67721;SDS011;58309;45.292;11.820;2022-11-20T11:42:16;3.20;;;1.95;;
67721;SDS011;58309;45.292;11.820;2022-11-20T11:44:44;4.75;;;2.45;;
67721;SDS011;58309;45.292;11.820;2022-11-20T12:07:04;3.63;;;2.40;;
67721;SDS011;58309;45.292;11.820;2022-11-20T12:09:41;3.72;;;2.45;;
67721;SDS011;58309;45.292;11.820;2022-11-20T12:12:30;3.17;;;2.70;;
67721;SDS011;58309;45.292;11.820;2022-11-20T12:15:13;2.50;;;2.10;;
67721;SDS011;58309;45.292;11.820;2022-11-20T12:17:47;6.82;;;4.20;;
67721;SDS011;58309;45.292;11.820;2022-11-20T12:20:13;6.38;;;3.65;;
67721;SDS011;58309;45.292;11.820;2022-11-20T12:25:29;12.20;;;5.60;;
67721;SDS011;58309;45.292;11.820;2022-11-20T12:30:33;5.05;;;3.30;;
67721;SDS011;58309;45.292;11.820;2022-11-20T12:39:06;2.75;;;2.55;;
67721;SDS011;58309;45.292;11.820;2022-11-20T12:47:49;3.35;;;2.30;;
67721;SDS011;58309;45.292;11.820;2022-11-20T12:59:20;4.45;;;2.45;;
67721;SDS011;58309;45.292;11.820;2022-11-20T13:01:51;6.97;;;3.25;;
67721;SDS011;58309;45.292;11.820;2022-11-20T13:06:58;2.72;;;2.53;;
67721;SDS011;58309;45.292;11.820;2022-11-20T13:09:25;3.47;;;2.65;;
67721;SDS011;58309;45.292;11.820;2022-11-20T13:17:11;5.95;;;2.90;;
67721;SDS011;58309;45.292;11.820;2022-11-20T13:19:49;2.50;;;2.30;;
67721;SDS011;58309;45.292;11.820;2022-11-20T13:22:29;5.13;;;2.75;;
67721;SDS011;58309;45.292;11.820;2022-11-20T13:25:10;3.75;;;2.83;;
67721;SDS011;58309;45.292;11.820;2022-11-20T13:27:47;5.05;;;2.72;;
67721;SDS011;58309;45.292;11.820;2022-11-20T13:30:16;3.47;;;2.67;;
67721;SDS011;58309;45.292;11.820;2022-11-20T13:35:58;5.20;;;3.00;;
67721;SDS011;58309;45.292;11.820;2022-11-20T13:38:39;3.15;;;2.67;;
67721;SDS011;58309;45.292;11.820;2022-11-20T13:41:09;2.90;;;2.50;;
67721;SDS011;58309;45.292;11.820;2022-11-20T13:43:53;4.40;;;2.70;;
67721;SDS011;58309;45.292;11.820;2022-11-20T13:46:22;2.70;;;2.50;;
67721;SDS011;58309;45.292;11.820;2022-11-20T13:48:49;3.10;;;2.55;;
67721;SDS011;58309;45.292;11.820;2022-11-20T13:54:23;6.78;;;2.90;;
67721;SDS011;58309;45.292;11.820;2022-11-20T14:00:16;4.07;;;2.78;;
67721;SDS011;58309;45.292;11.820;2022-11-20T14:02:52;3.22;;;2.63;;
67721;SDS011;58309;45.292;11.820;2022-11-20T14:05:23;3.87;;;2.60;;
67721;SDS011;58309;45.292;11.820;2022-11-20T14:07:49;5.30;;;2.90;;
67721;SDS011;58309;45.292;11.820;2022-11-20T14:10:22;8.05;;;3.10;;
67721;SDS011;58309;45.292;11.820;2022-11-20T14:12:49;6.13;;;2.97;;
67721;SDS011;58309;45.292;11.820;2022-11-20T14:15:34;6.70;;;4.78;;
67721;SDS011;58309;45.292;11.820;2022-11-20T14:18:11;4.80;;;3.55;;
67721;SDS011;58309;45.292;11.820;2022-11-20T14:20:38;4.60;;;3.08;;
67721;SDS011;58309;45.292;11.820;2022-11-20T14:23:04;4.60;;;3.00;;
67721;SDS011;58309;45.292;11.820;2022-11-20T14:25:30;3.78;;;2.75;;
67721;SDS011;58309;45.292;11.820;2022-11-20T14:28:00;7.45;;;3.42;;
67721;SDS011;58309;45.292;11.820;2022-11-20T14:30:43;5.63;;;3.30;;
67721;SDS011;58309;45.292;11.820;2022-11-20T14:33:12;5.72;;;3.20;;
67721;SDS011;58309;45.292;11.820;2022-11-20T14:35:49;4.60;;;3.20;;
67721;SDS011;58309;45.292;11.820;2022-11-20T14:38:21;6.75;;;3.20;;
67721;SDS011;58309;45.292;11.820;2022-11-20T14:40:51;3.60;;;2.83;;
67721;SDS011;58309;45.292;11.820;2022-11-20T14:43:24;5.90;;;3.30;;
67721;SDS011;58309;45.292;11.820;2022-11-20T14:46:02;4.90;;;3.15;;
67721;SDS011;58309;45.292;11.820;2022-11-20T14:48:33;4.22;;;3.22;;
67721;SDS011;58309;45.292;11.820;2022-11-20T14:51:03;4.55;;;3.47;;
67721;SDS011;58309;45.292;11.820;2022-11-20T14:53:29;6.00;;;3.35;;
67721;SDS011;58309;45.292;11.820;2022-11-20T14:55:58;4.53;;;3.50;;
67721;SDS011;58309;45.292;11.820;2022-11-20T14:58:30;6.82;;;4.05;;
67721;SDS011;58309;45.292;11.820;2022-11-20T15:03:35;6.65;;;4.07;;
67721;SDS011;58309;45.292;11.820;2022-11-20T15:06:03;6.22;;;4.10;;
67721;SDS011;58309;45.292;11.820;2022-11-20T15:08:30;9.02;;;4.32;;
67721;SDS011;58309;45.292;11.820;2022-11-20T15:10:56;7.28;;;4.30;;
67721;SDS011;58309;45.292;11.820;2022-11-20T15:13:26;5.10;;;4.32;;
67721;SDS011;58309;45.292;11.820;2022-11-20T15:15:56;4.90;;;4.30;;
67721;SDS011;58309;45.292;11.820;2022-11-20T15:18:26;6.82;;;5.00;;
67721;SDS011;58309;45.292;11.820;2022-11-20T15:21:15;8.45;;;5.85;;
67721;SDS011;58309;45.292;11.820;2022-11-20T15:23:41;15.43;;;8.32;;
67721;SDS011;58309;45.292;11.820;2022-11-20T15:26:08;31.05;;;15.90;;
67721;SDS011;58309;45.292;11.820;2022-11-20T15:28:44;30.98;;;15.85;;
67721;SDS011;58309;45.292;11.820;2022-11-20T15:33:41;22.30;;;11.20;;
67721;SDS011;58309;45.292;11.820;2022-11-20T15:36:08;11.93;;;7.65;;
67721;SDS011;58309;45.292;11.820;2022-11-20T15:38:34;15.77;;;9.77;;
67721;SDS011;58309;45.292;11.820;2022-11-20T15:40:59;14.77;;;9.93;;
67721;SDS011;58309;45.292;11.820;2022-11-20T15:43:25;19.05;;;11.68;;
67721;SDS011;58309;45.292;11.820;2022-11-20T15:45:51;19.23;;;10.50;;
67721;SDS011;58309;45.292;11.820;2022-11-20T15:48:24;9.35;;;6.53;;
67721;SDS011;58309;45.292;11.820;2022-11-20T15:50:56;11.48;;;7.60;;
67721;SDS011;58309;45.292;11.820;2022-11-20T15:53:24;10.20;;;7.43;;
67721;SDS011;58309;45.292;11.820;2022-11-20T15:55:50;11.23;;;7.72;;
67721;SDS011;58309;45.292;11.820;2022-11-20T15:58:15;14.15;;;8.05;;
67721;SDS011;58309;45.292;11.820;2022-11-20T16:00:44;14.57;;;8.00;;
67721;SDS011;58309;45.292;11.820;2022-11-20T16:03:10;15.95;;;8.85;;
67721;SDS011;58309;45.292;11.820;2022-11-20T16:05:39;15.45;;;9.48;;
67721;SDS011;58309;45.292;11.820;2022-11-20T16:08:05;12.68;;;8.63;;
67721;SDS011;58309;45.292;11.820;2022-11-20T16:10:31;16.38;;;9.90;;
67721;SDS011;58309;45.292;11.820;2022-11-20T16:12:56;16.20;;;10.43;;
67721;SDS011;58309;45.292;11.820;2022-11-20T16:15:40;14.63;;;10.20;;
67721;SDS011;58309;45.292;11.820;2022-11-20T16:18:19;22.92;;;12.43;;
67721;SDS011;58309;45.292;11.820;2022-11-20T16:20:46;21.75;;;12.45;;
67721;SDS011;58309;45.292;11.820;2022-11-20T16:23:15;18.52;;;10.82;;
67721;SDS011;58309;45.292;11.820;2022-11-20T16:25:41;17.20;;;10.70;;
67721;SDS011;58309;45.292;11.820;2022-11-20T16:28:07;20.40;;;9.85;;
67721;SDS011;58309;45.292;11.820;2022-11-20T16:30:33;15.52;;;8.38;;
67721;SDS011;58309;45.292;11.820;2022-11-20T16:33:00;12.07;;;7.45;;
67721;SDS011;58309;45.292;11.820;2022-11-20T16:35:26;11.70;;;7.82;;
67721;SDS011;58309;45.292;11.820;2022-11-20T16:37:53;12.25;;;7.00;;
67721;SDS011;58309;45.292;11.820;2022-11-20T16:40:23;10.40;;;6.88;;